createdAt,value
2019-03-31T00:02:27.012Z,5.89
2019-03-31T00:04:56.342Z,5.89
2019-03-31T00:07:26.682Z,5.82
2019-03-31T00:09:56.075Z,5.81
2019-03-31T00:12:25.356Z,5.72
2019-03-31T00:14:54.627Z,5.71
2019-03-31T00:17:24.992Z,5.73
2019-03-31T00:19:54.185Z,5.73
2019-03-31T00:22:23.427Z,5.69
2019-03-31T00:24:53.582Z,5.62
2019-03-31T00:27:23.059Z,5.62
2019-03-31T00:29:52.992Z,5.58
2019-03-31T00:32:22.595Z,5.53
2019-03-31T00:34:51.860Z,5.54
2019-03-31T00:37:21.292Z,5.48
2019-03-31T00:39:53.042Z,5.49
2019-03-31T00:42:22.284Z,5.47
2019-03-31T00:44:51.711Z,5.42
2019-03-31T00:47:21.242Z,5.43
2019-03-31T00:49:52.382Z,5.43
2019-03-31T00:52:21.658Z,5.37
2019-03-31T00:54:51.069Z,5.37
2019-03-31T00:57:20.369Z,5.34
2019-03-31T00:59:49.700Z,5.31
2019-03-31T01:02:22.512Z,5.34
2019-03-31T01:04:51.922Z,5.37
2019-03-31T01:07:23.321Z,5.35
2019-03-31T01:09:53.525Z,5.38
2019-03-31T01:12:24.313Z,5.40
2019-03-31T01:14:53.733Z,5.41
2019-03-31T01:17:25.530Z,5.41
2019-03-31T01:19:56.756Z,5.34
2019-03-31T01:22:26.148Z,5.26
2019-03-31T01:24:55.734Z,5.23
2019-03-31T01:27:25.232Z,5.21
2019-03-31T01:29:54.857Z,5.19
2019-03-31T01:32:24.433Z,5.13
2019-03-31T01:34:53.774Z,5.03
2019-03-31T01:37:23.200Z,4.96
2019-03-31T01:39:52.561Z,4.92
2019-03-31T01:42:22.283Z,4.89
2019-03-31T01:44:51.783Z,4.89
2019-03-31T01:47:21.406Z,4.84
2019-03-31T01:49:50.736Z,4.78
2019-03-31T01:52:21.709Z,4.70
2019-03-31T01:54:51.064Z,4.71
2019-03-31T01:57:20.474Z,4.74
2019-03-31T01:59:49.829Z,4.72
2019-03-31T02:02:26.800Z,4.61
2019-03-31T02:04:56.245Z,4.63
2019-03-31T02:07:25.562Z,4.57
2019-03-31T02:09:54.873Z,4.48
2019-03-31T02:12:24.271Z,4.43
2019-03-31T02:14:53.598Z,4.41
2019-03-31T02:17:23.116Z,4.41
2019-03-31T02:19:52.373Z,4.36
2019-03-31T02:22:21.742Z,4.29
2019-03-31T02:24:51.059Z,4.26
2019-03-31T02:27:20.376Z,4.20
2019-03-31T02:29:49.636Z,4.12
2019-03-31T02:32:24.141Z,4.13
2019-03-31T02:34:50.156Z,4.11
2019-03-31T02:37:19.505Z,4.06
2019-03-31T02:39:48.823Z,4.01
2019-03-31T02:42:18.130Z,3.92
2019-03-31T02:44:47.437Z,3.90
2019-03-31T02:47:16.794Z,3.90
2019-03-31T02:49:47.039Z,3.89
2019-03-31T02:52:16.352Z,3.84
2019-03-31T02:54:45.765Z,3.87
2019-03-31T02:57:15.601Z,3.83
2019-03-31T02:59:45.185Z,3.80
2019-03-31T03:02:15.033Z,3.83
2019-03-31T03:04:44.387Z,3.82
2019-03-31T03:07:13.898Z,3.82
2019-03-31T03:09:45.790Z,3.77
2019-03-31T03:12:16.170Z,3.76
2019-03-31T03:14:45.497Z,3.72
2019-03-31T03:17:14.847Z,3.77
2019-03-31T03:19:44.276Z,3.75
2019-03-31T03:22:13.685Z,3.77
2019-03-31T03:24:43.018Z,3.77
2019-03-31T03:27:12.295Z,3.70
2019-03-31T03:29:41.562Z,3.63
2019-03-31T03:32:10.866Z,3.62
2019-03-31T03:34:40.280Z,3.59
2019-03-31T03:37:09.501Z,3.58
2019-03-31T03:39:38.781Z,3.58
2019-03-31T03:42:08.525Z,3.51
2019-03-31T03:44:37.714Z,3.49
2019-03-31T03:47:06.971Z,3.45
2019-03-31T03:49:36.318Z,3.43
2019-03-31T03:52:05.772Z,3.44
2019-03-31T03:54:35.208Z,3.43
2019-03-31T03:57:05.512Z,3.39
2019-03-31T03:59:34.831Z,3.38
2019-03-31T04:02:04.164Z,3.38
2019-03-31T04:04:33.426Z,3.28
2019-03-31T04:07:02.968Z,3.28
2019-03-31T04:09:32.256Z,3.35
2019-03-31T04:12:01.588Z,3.30
2019-03-31T04:14:30.840Z,3.28
2019-03-31T04:17:00.268Z,3.27
2019-03-31T04:19:29.641Z,3.26
2019-03-31T04:21:58.922Z,3.31
2019-03-31T04:24:28.231Z,3.33
2019-03-31T04:26:57.490Z,3.32
2019-03-31T04:29:26.792Z,3.30
2019-03-31T04:31:57.376Z,3.26
2019-03-31T04:34:26.603Z,3.25
2019-03-31T04:36:55.896Z,3.19
2019-03-31T04:39:27.762Z,3.12
2019-03-31T04:41:57.108Z,3.14
2019-03-31T04:44:26.450Z,3.08
2019-03-31T04:46:55.712Z,3.06
2019-03-31T04:49:25.086Z,3.08
2019-03-31T04:51:54.471Z,3.02
2019-03-31T04:54:23.866Z,3.04
2019-03-31T04:56:53.159Z,3.07
2019-03-31T04:59:22.409Z,3.10
2019-03-31T05:01:51.653Z,3.06
2019-03-31T05:04:20.993Z,3.05
2019-03-31T05:06:50.246Z,3.03
2019-03-31T05:09:19.615Z,3.09
2019-03-31T05:11:48.884Z,3.02
2019-03-31T05:14:18.185Z,3.01
2019-03-31T05:16:47.650Z,3.03
2019-03-31T05:19:16.943Z,3.02
2019-03-31T05:21:46.213Z,3.06
2019-03-31T05:24:15.607Z,3.04
2019-03-31T05:26:44.930Z,3.13
2019-03-31T05:29:15.537Z,3.16
2019-03-31T05:31:44.937Z,3.15
2019-03-31T05:34:19.422Z,3.27
2019-03-31T05:36:45.341Z,3.38
2019-03-31T05:39:14.594Z,3.46
2019-03-31T05:41:50.071Z,3.56
2019-03-31T05:44:19.426Z,3.62
2019-03-31T05:46:48.924Z,3.70
2019-03-31T05:49:18.432Z,3.82
2019-03-31T05:51:47.722Z,3.91
2019-03-31T05:54:17.052Z,4.01
2019-03-31T05:56:46.414Z,4.08
2019-03-31T05:59:15.841Z,4.21
2019-03-31T06:01:45.253Z,4.28
2019-03-31T06:04:14.651Z,4.34
2019-03-31T06:06:44.018Z,4.48
2019-03-31T06:09:14.798Z,4.62
2019-03-31T06:11:45.226Z,4.74
2019-03-31T06:14:14.693Z,4.80
2019-03-31T06:16:44.185Z,4.80
2019-03-31T06:19:13.870Z,4.95
2019-03-31T06:21:43.127Z,5.19
2019-03-31T06:24:12.424Z,5.29
2019-03-31T06:26:44.284Z,5.59
2019-03-31T06:29:14.642Z,5.69
2019-03-31T06:31:43.954Z,5.83
2019-03-31T06:34:13.454Z,5.92
2019-03-31T06:36:43.927Z,6.33
2019-03-31T06:39:13.283Z,6.63
2019-03-31T06:41:42.677Z,7.15
2019-03-31T06:44:11.981Z,7.08
2019-03-31T06:46:41.338Z,7.48
2019-03-31T06:49:10.800Z,7.59
2019-03-31T06:51:40.180Z,8.06
2019-03-31T06:54:09.600Z,8.36
2019-03-31T06:56:38.998Z,8.46
2019-03-31T06:59:08.443Z,8.46
2019-03-31T07:01:37.766Z,8.44
2019-03-31T07:04:08.185Z,8.86
2019-03-31T07:06:37.574Z,9.25
2019-03-31T07:09:07.418Z,9.38
2019-03-31T07:11:36.753Z,9.90
2019-03-31T07:14:06.198Z,10.34
2019-03-31T07:16:35.549Z,10.37
2019-03-31T07:19:04.903Z,10.90
2019-03-31T07:21:34.248Z,11.50
2019-03-31T07:24:03.999Z,11.25
2019-03-31T07:26:33.536Z,12.06
2019-03-31T07:29:03.382Z,11.90
2019-03-31T07:31:33.276Z,11.85
2019-03-31T07:34:03.336Z,11.77
2019-03-31T07:36:32.628Z,12.26
2019-03-31T07:39:02.026Z,11.39
2019-03-31T07:41:33.491Z,11.19
2019-03-31T07:44:02.831Z,11.92
2019-03-31T07:46:32.116Z,11.75
2019-03-31T07:49:01.551Z,11.56
2019-03-31T07:51:30.976Z,12.24
2019-03-31T07:54:00.426Z,12.33
2019-03-31T07:56:30.912Z,12.46
2019-03-31T07:59:00.399Z,12.94
2019-03-31T08:01:29.765Z,12.85
2019-03-31T08:03:59.156Z,12.55
2019-03-31T08:06:28.658Z,11.77
2019-03-31T08:08:59.113Z,12.25
2019-03-31T08:11:28.585Z,12.62
2019-03-31T08:13:59.315Z,12.76
2019-03-31T08:16:28.772Z,12.76
2019-03-31T08:18:58.165Z,13.74
2019-03-31T08:21:27.727Z,13.81
2019-03-31T08:23:57.190Z,13.38
2019-03-31T08:26:26.709Z,13.51
2019-03-31T08:28:58.629Z,13.04
2019-03-31T08:31:27.492Z,12.72
2019-03-31T08:33:56.756Z,12.98
2019-03-31T08:36:26.109Z,12.87
2019-03-31T08:38:55.517Z,13.19
2019-03-31T08:41:25.017Z,13.44
2019-03-31T08:43:54.410Z,13.49
2019-03-31T08:46:23.747Z,13.37
2019-03-31T08:48:53.106Z,14.30
2019-03-31T08:51:22.461Z,14.09
2019-03-31T08:53:51.755Z,13.36
2019-03-31T08:56:21.159Z,13.38
2019-03-31T08:58:50.431Z,13.50
2019-03-31T09:01:20.016Z,13.41
2019-03-31T09:03:49.304Z,13.03
2019-03-31T09:06:19.592Z,13.30
2019-03-31T09:08:48.948Z,13.82
2019-03-31T09:11:18.448Z,13.47
2019-03-31T09:13:47.670Z,13.63
2019-03-31T09:16:16.994Z,14.28
2019-03-31T09:18:46.407Z,14.45
2019-03-31T09:21:15.859Z,13.80
2019-03-31T09:23:45.884Z,13.86
2019-03-31T09:26:15.362Z,13.96
2019-03-31T09:28:44.805Z,13.74
2019-03-31T09:31:14.396Z,13.90
2019-03-31T09:33:43.875Z,13.60
2019-03-31T09:36:16.362Z,13.77
2019-03-31T09:38:45.350Z,13.77
2019-03-31T09:41:14.731Z,14.46
2019-03-31T09:43:43.983Z,14.38
2019-03-31T09:46:13.323Z,14.44
2019-03-31T09:48:42.737Z,14.23
2019-03-31T09:51:12.185Z,14.50
2019-03-31T09:53:41.499Z,14.22
2019-03-31T09:56:10.898Z,14.65
2019-03-31T09:58:40.298Z,14.88
2019-03-31T10:01:09.669Z,14.64
2019-03-31T10:03:39.093Z,15.14
2019-03-31T10:06:11.031Z,15.01
2019-03-31T10:08:39.805Z,14.96
2019-03-31T10:11:09.097Z,15.20
2019-03-31T10:13:38.530Z,15.47
2019-03-31T10:16:08.785Z,15.69
2019-03-31T10:18:38.151Z,16.09
2019-03-31T10:21:07.517Z,16.10
2019-03-31T10:23:36.837Z,15.86
2019-03-31T10:26:06.303Z,16.13
2019-03-31T10:28:35.848Z,16.52
2019-03-31T10:31:05.252Z,16.13
2019-03-31T10:33:34.638Z,16.17
2019-03-31T10:36:04.118Z,16.80
2019-03-31T10:38:33.463Z,17.06
2019-03-31T10:41:02.859Z,17.09
2019-03-31T10:43:32.122Z,17.15
2019-03-31T10:46:01.504Z,17.13
2019-03-31T10:48:30.887Z,17.15
2019-03-31T10:51:00.204Z,17.36
2019-03-31T10:53:29.576Z,17.21
2019-03-31T10:55:59.013Z,17.37
2019-03-31T10:58:29.473Z,17.67
2019-03-31T11:00:58.742Z,17.83
2019-03-31T11:03:28.192Z,17.57
2019-03-31T11:05:57.663Z,17.99
2019-03-31T11:08:26.976Z,17.82
2019-03-31T11:10:56.323Z,17.94
2019-03-31T11:13:25.678Z,17.84
2019-03-31T11:15:57.497Z,18.06
2019-03-31T11:18:26.232Z,17.92
2019-03-31T11:20:56.765Z,18.12
2019-03-31T11:23:27.853Z,18.25
2019-03-31T11:25:57.351Z,18.17
2019-03-31T11:28:26.776Z,18.11
2019-03-31T11:30:56.168Z,18.40
2019-03-31T11:33:25.544Z,18.43
2019-03-31T11:35:55.101Z,18.39
2019-03-31T11:38:24.581Z,18.47
2019-03-31T11:40:53.999Z,18.45
2019-03-31T11:43:23.281Z,18.50
2019-03-31T11:45:52.709Z,18.32
2019-03-31T11:48:22.182Z,18.50
2019-03-31T11:50:52.604Z,18.51
2019-03-31T11:53:22.639Z,18.41
2019-03-31T11:55:52.171Z,18.46
2019-03-31T11:58:22.098Z,18.02
2019-03-31T12:00:57.996Z,18.10
2019-03-31T12:03:30.777Z,18.50
2019-03-31T12:05:59.064Z,18.05
2019-03-31T12:08:32.798Z,17.89
2019-03-31T12:11:02.274Z,18.18
2019-03-31T12:13:33.749Z,18.13
2019-03-31T12:16:03.179Z,18.25
2019-03-31T12:18:32.765Z,18.31
2019-03-31T12:21:02.095Z,18.38
2019-03-31T12:23:31.438Z,18.55
2019-03-31T12:26:00.947Z,18.56
2019-03-31T12:28:31.859Z,18.59
2019-03-31T12:31:01.286Z,18.60
2019-03-31T12:33:30.675Z,18.56
2019-03-31T12:36:01.013Z,18.55
2019-03-31T12:38:30.686Z,18.57
2019-03-31T12:41:00.441Z,18.68
2019-03-31T12:43:31.823Z,18.73
2019-03-31T12:46:01.401Z,18.80
2019-03-31T12:48:31.762Z,18.79
2019-03-31T12:51:01.418Z,18.83
2019-03-31T12:53:30.807Z,18.88
2019-03-31T12:56:00.769Z,19.08
2019-03-31T12:58:30.263Z,18.83
2019-03-31T13:00:59.761Z,19.11
2019-03-31T13:03:29.277Z,19.27
2019-03-31T13:05:58.705Z,19.37
2019-03-31T13:08:28.117Z,19.30
2019-03-31T13:10:59.761Z,19.20
2019-03-31T13:13:29.280Z,19.02
2019-03-31T13:15:59.815Z,18.95
2019-03-31T13:18:29.296Z,18.42
2019-03-31T13:20:58.852Z,18.48
2019-03-31T13:23:28.379Z,18.41
2019-03-31T13:25:58.981Z,18.63
2019-03-31T13:28:28.672Z,18.96
2019-03-31T13:30:58.597Z,19.21
2019-03-31T13:33:28.307Z,19.36
2019-03-31T13:35:57.975Z,19.53
2019-03-31T13:38:27.475Z,19.60
2019-03-31T13:40:56.765Z,19.68
2019-03-31T13:43:26.160Z,19.75
2019-03-31T13:45:55.559Z,19.45
2019-03-31T13:48:24.956Z,19.31
2019-03-31T13:50:54.655Z,18.74
2019-03-31T13:53:24.220Z,18.57
2019-03-31T13:55:53.698Z,18.53
2019-03-31T13:58:25.994Z,18.71
2019-03-31T14:00:57.197Z,18.73
2019-03-31T14:03:26.830Z,18.67
2019-03-31T14:05:56.301Z,18.67
2019-03-31T14:08:26.347Z,18.58
2019-03-31T14:10:55.758Z,18.57
2019-03-31T14:13:25.194Z,18.46
2019-03-31T14:15:54.592Z,18.30
2019-03-31T14:18:24.089Z,17.90
2019-03-31T14:20:53.532Z,17.85
2019-03-31T14:23:22.999Z,17.72
2019-03-31T14:25:52.516Z,17.78
2019-03-31T14:28:22.016Z,17.93
2019-03-31T14:30:51.389Z,18.14
2019-03-31T14:33:20.951Z,18.26
2019-03-31T14:35:50.583Z,18.39
2019-03-31T14:38:20.114Z,18.50
2019-03-31T14:40:49.711Z,18.44
2019-03-31T14:43:22.078Z,18.32
2019-03-31T14:45:58.394Z,18.45
2019-03-31T14:48:27.731Z,18.52
2019-03-31T14:50:57.055Z,18.60
2019-03-31T14:53:26.650Z,18.36
2019-03-31T14:55:56.166Z,18.57
2019-03-31T14:58:25.737Z,18.67
2019-03-31T15:00:55.002Z,18.65
2019-03-31T15:03:24.572Z,18.55
2019-03-31T15:05:54.927Z,18.68
2019-03-31T15:08:24.218Z,18.68
2019-03-31T15:10:53.504Z,18.71
2019-03-31T15:13:22.890Z,18.73
2019-03-31T15:15:52.222Z,18.84
2019-03-31T15:18:21.451Z,18.91
2019-03-31T15:20:51.011Z,18.94
2019-03-31T15:23:28.922Z,18.84
2019-03-31T15:25:51.531Z,18.76
2019-03-31T15:28:20.892Z,18.77
2019-03-31T15:30:50.482Z,18.62
2019-03-31T15:33:19.895Z,18.46
2019-03-31T15:35:49.311Z,18.38
2019-03-31T15:38:18.855Z,18.31
2019-03-31T15:40:48.679Z,18.30
2019-03-31T15:43:18.449Z,18.32
2019-03-31T15:45:47.931Z,18.31
2019-03-31T15:48:17.434Z,18.23
2019-03-31T15:50:46.725Z,18.14
2019-03-31T15:53:16.151Z,18.09
2019-03-31T15:55:45.668Z,18.06
2019-03-31T15:58:15.034Z,18.14
2019-03-31T16:00:44.352Z,18.12
2019-03-31T16:03:14.758Z,18.11
2019-03-31T16:05:44.098Z,18.00
2019-03-31T16:08:13.042Z,17.92
2019-03-31T16:10:42.028Z,17.80
2019-03-31T16:13:10.885Z,17.72
2019-03-31T16:15:39.667Z,17.63
2019-03-31T16:18:08.530Z,17.51
2019-03-31T16:20:39.790Z,17.42
2019-03-31T16:23:08.713Z,17.28
2019-03-31T16:25:40.262Z,17.08
2019-03-31T16:28:09.051Z,16.96
2019-03-31T16:30:38.511Z,16.88
2019-03-31T16:33:07.541Z,16.80
2019-03-31T16:35:36.358Z,16.73
2019-03-31T16:38:05.464Z,16.65
2019-03-31T16:40:34.401Z,16.62
2019-03-31T16:43:03.249Z,16.54
2019-03-31T16:45:38.339Z,16.46
2019-03-31T16:48:07.125Z,16.36
2019-03-31T16:50:36.036Z,16.28
2019-03-31T16:53:05.033Z,16.19
2019-03-31T16:55:33.959Z,16.09
2019-03-31T16:58:02.775Z,16.01
2019-03-31T17:00:31.607Z,15.96
2019-03-31T17:03:00.459Z,15.84
2019-03-31T17:05:29.345Z,15.74
2019-03-31T17:07:58.132Z,15.67
2019-03-31T17:10:27.112Z,15.58
2019-03-31T17:12:56.071Z,15.52
2019-03-31T17:15:25.033Z,15.43
2019-03-31T17:17:53.954Z,15.35
2019-03-31T17:20:22.695Z,15.27
2019-03-31T17:22:51.524Z,15.11
2019-03-31T17:25:20.431Z,15.07
2019-03-31T17:27:49.198Z,14.92
2019-03-31T17:30:18.154Z,14.83
2019-03-31T17:32:47.069Z,14.60
2019-03-31T17:35:15.799Z,14.36
2019-03-31T17:37:44.662Z,14.27
2019-03-31T17:40:13.600Z,13.98
2019-03-31T17:42:42.524Z,13.86
2019-03-31T17:45:11.514Z,13.73
2019-03-31T17:47:40.619Z,13.62
2019-03-31T17:50:09.611Z,13.49
2019-03-31T17:52:38.526Z,13.41
2019-03-31T17:55:07.445Z,13.31
2019-03-31T17:57:36.293Z,13.28
2019-03-31T18:00:06.424Z,13.23
2019-03-31T18:02:35.422Z,13.22
2019-03-31T18:05:04.860Z,13.15
2019-03-31T18:07:35.751Z,13.11
2019-03-31T18:10:19.608Z,13.06
2019-03-31T18:12:36.641Z,12.98
2019-03-31T18:15:07.203Z,12.91
2019-03-31T18:17:36.098Z,12.85
2019-03-31T18:20:05.344Z,12.79
2019-03-31T18:22:34.318Z,12.76
2019-03-31T18:25:03.331Z,12.75
2019-03-31T18:27:32.401Z,12.69
2019-03-31T18:30:01.441Z,12.61
2019-03-31T18:32:30.319Z,12.59
2019-03-31T18:34:59.934Z,12.54
2019-03-31T18:37:28.894Z,12.50
2019-03-31T18:39:57.931Z,12.43
2019-03-31T18:42:27.849Z,12.33
2019-03-31T18:44:57.781Z,12.27
2019-03-31T18:47:27.847Z,12.18
2019-03-31T18:49:56.760Z,12.11
2019-03-31T18:52:25.649Z,12.05
2019-03-31T18:55:19.148Z,11.96
2019-03-31T18:58:02.934Z,11.95
2019-03-31T19:01:07.873Z,11.88
2019-03-31T19:03:53.813Z,11.81
2019-03-31T19:06:56.871Z,11.82
2019-03-31T19:10:03.184Z,11.79
2019-03-31T19:12:45.778Z,11.78
2019-03-31T19:15:49.300Z,11.74
2019-03-31T19:18:44.152Z,11.77
2019-03-31T19:21:18.041Z,11.72
2019-03-31T19:24:17.233Z,11.71
2019-03-31T19:27:04.763Z,11.69
2019-03-31T19:29:51.820Z,11.66
2019-03-31T19:32:26.520Z,11.65
2019-03-31T19:35:33.120Z,11.61
2019-03-31T19:38:16.413Z,11.58
2019-03-31T19:41:04.408Z,11.60
2019-03-31T19:43:53.086Z,11.55
2019-03-31T19:46:31.154Z,11.53
2019-03-31T19:49:17.911Z,11.56
2019-03-31T19:52:01.316Z,11.49
2019-03-31T19:54:58.551Z,11.44
2019-03-31T19:58:04.857Z,11.41
2019-03-31T20:00:45.971Z,11.40
2019-03-31T20:03:23.574Z,11.39
2019-03-31T20:06:10.487Z,11.36
2019-03-31T20:08:59.588Z,11.36
2019-03-31T20:11:59.412Z,11.31
2019-03-31T20:14:37.384Z,11.33
2019-03-31T20:17:13.573Z,11.26
2019-03-31T20:20:01.274Z,11.24
2019-03-31T20:22:37.362Z,11.18
2019-03-31T20:25:25.526Z,11.10
2019-03-31T20:28:02.385Z,11.09
2019-03-31T20:30:46.920Z,11.05
2019-03-31T20:33:33.046Z,11.02
2019-03-31T20:36:36.352Z,10.96
2019-03-31T20:39:23.117Z,10.86
2019-03-31T20:42:11.240Z,10.79
2019-03-31T20:44:40.123Z,10.77
2019-03-31T20:47:08.895Z,10.79
2019-03-31T20:49:37.784Z,10.80
2019-03-31T20:52:06.806Z,10.76
2019-03-31T20:54:35.654Z,10.71
2019-03-31T20:57:04.654Z,10.69
2019-03-31T20:59:35.685Z,10.67
2019-03-31T21:02:04.619Z,10.65
2019-03-31T21:04:33.733Z,10.62
2019-03-31T21:07:02.625Z,10.56
2019-03-31T21:09:44.188Z,10.56
2019-03-31T21:12:02.279Z,10.53
2019-03-31T21:14:31.190Z,10.50
2019-03-31T21:17:01.077Z,10.48
2019-03-31T21:19:30.005Z,10.43
2019-03-31T21:21:58.955Z,10.39
2019-03-31T21:24:27.769Z,10.37
2019-03-31T21:26:57.767Z,10.33
2019-03-31T21:29:27.795Z,10.24
2019-03-31T21:31:56.662Z,10.23
2019-03-31T21:34:25.629Z,10.18
2019-03-31T21:36:54.509Z,10.07
2019-03-31T21:39:24.414Z,10.06
2019-03-31T21:41:53.259Z,10.02
2019-03-31T21:44:22.191Z,9.95
2019-03-31T21:46:51.104Z,9.92
2019-03-31T21:49:20.100Z,9.88
2019-03-31T21:51:49.058Z,9.86
2019-03-31T21:54:17.908Z,9.84
2019-03-31T21:56:46.837Z,9.82
2019-03-31T21:59:15.711Z,9.77
2019-03-31T22:01:44.608Z,9.72
2019-03-31T22:04:13.485Z,9.70
2019-03-31T22:06:42.362Z,9.66
2019-03-31T22:09:11.816Z,9.61
2019-03-31T22:11:40.759Z,9.58
2019-03-31T22:14:10.702Z,9.51
2019-03-31T22:16:39.869Z,9.45
2019-03-31T22:19:08.687Z,9.42
2019-03-31T22:21:37.508Z,9.40
2019-03-31T22:24:06.697Z,9.37
2019-03-31T22:26:35.525Z,9.36
2019-03-31T22:29:04.578Z,9.31
2019-03-31T22:31:33.648Z,9.29
2019-03-31T22:34:02.515Z,9.25
2019-03-31T22:36:31.250Z,9.21
2019-03-31T22:38:59.997Z,9.17
2019-03-31T22:41:29.147Z,9.11
2019-03-31T22:43:57.960Z,9.09
2019-03-31T22:46:26.763Z,9.00
2019-03-31T22:48:55.575Z,8.99
2019-03-31T22:51:24.492Z,8.96
2019-03-31T22:53:53.342Z,8.93
2019-03-31T22:56:22.269Z,8.88
2019-03-31T22:58:51.162Z,8.84
2019-03-31T23:01:20.105Z,8.79
2019-03-31T23:03:48.923Z,8.78
2019-03-31T23:06:20.779Z,8.73
2019-03-31T23:08:49.546Z,8.70
2019-03-31T23:11:18.433Z,8.67
2019-03-31T23:13:47.255Z,8.64
2019-03-31T23:16:16.207Z,8.60
2019-03-31T23:18:45.122Z,8.53
2019-03-31T23:21:13.953Z,8.51
2019-03-31T23:23:45.635Z,8.44
2019-03-31T23:26:14.744Z,8.39
2019-03-31T23:28:49.325Z,8.35
2019-03-31T23:31:18.239Z,8.29
2019-03-31T23:33:47.055Z,8.22
2019-03-31T23:36:15.885Z,8.14
2019-03-31T23:38:44.733Z,8.14
2019-03-31T23:41:13.604Z,8.13
2019-03-31T23:43:42.502Z,8.08
2019-03-31T23:46:11.461Z,8.05
2019-03-31T23:48:40.247Z,8.08
2019-03-31T23:51:08.991Z,8.02
2019-03-31T23:53:39.516Z,8.04
2019-03-31T23:56:08.434Z,8.02
2019-03-31T23:58:37.213Z,8.00
